الصفحة الرئيسية
METAR-TAF:

METAR-TAF

مطار :

Ranong, تايلاند

دائرة عرض: 09-59N, خط طول: 098-37E, ارتفاع: 7 متر

مراقبة الطقس الحالي

تاريخ ووقت الإصدار 13 دقيقة قبل الساعة 09:00UTC
ريح 7 عقدة من الجنوب الغربي
درجة الحرارة 30°درجة مئوية
الرطوبة 66%
ضغط 1007 hPa
الرؤية 10 كم أو أكثر
غيوم قليلة على ارتفاع 2000 قدم

METAR: VTSR 260900Z 22007KT 9999 FEW020 30/23 Q1007 NOSIG

زمن: 16:13 (09:13 UTC)

توقعات

تاريخ ووقت الإصدار 4ساعات و 13 دقيقة قبل الساعة 05:00UTC
التوقعات صالحة من26 الساعة 06 UTC إلى 27 الساعة 06 UTC
ريح 6 عقدة من الغرب
الرؤية 10 كم أو أكثر
غيوم متفرقة على ارتفاع 2000 قدم
مؤقت
من 26 الساعة 06 UTC إلى 26 الساعة 12 UTC
غيوم قليلة على ارتفاع 1600 قدم, مزنة ركامية.
غيوم متفرقة على ارتفاع 2000 قدم
غيوم مفككة على ارتفاع 10000 قدم
عاصفة رعدية, مطر خفيف
أصبح
من 26 الساعة 12 UTC إلى 26 الساعة 14 UTC
ريح عقدة من الشمال
أصبح
من 27 الساعة 04 UTC إلى 27 الساعة 06 UTC
ريح 6 عقدة من الغرب/الشمال الغربي

TAF: VTSR 260500Z 2606/2706 26006KT 9999 SCT020 TEMPO 2606/2612 -TSRA FEW016CB SCT020 BKN100 BECMG 2612/2614 00000KT BECMG 2704/2706 30006KT

أرصاد الطقس والتوقعات من أكثر من 4000 مطار (تقارير الطقس للمطار METAR والتنبؤ بالطقس بالمطارTAF).

المحطات المتاحة هي النقط الصفراء والحمراء على الخريطة.

حرك المؤشر فوق النقطة لمعرفة اسم المحطة.

ثم انقر لمعرفة أرصاد وتوقعات الطقس.

لتغيير الخارطة: اضغط على الأزرار الخضراء مع رمز الصليب الأسود للتكبير. على الزر الأخضر مع شرطة للتصغير، أو على الأسهم الخضراء للخرائط المجاورة.


METAR-TAF: